createdAt,value
2019-04-28T00:04:45.869Z,7.77
2019-04-28T00:09:51.025Z,7.23
2019-04-28T00:14:54.592Z,7.13
2019-04-28T00:20:01.340Z,6.87
2019-04-28T00:25:21.481Z,7.40
2019-04-28T00:30:25.566Z,9.23
2019-04-28T00:35:28.927Z,7.17
2019-04-28T00:40:32.330Z,10.33
2019-04-28T00:45:35.739Z,7.23
2019-04-28T00:50:39.230Z,7.23
2019-04-28T00:55:42.650Z,7.60
2019-04-28T01:01:04.141Z,6.63
2019-04-28T01:06:07.620Z,6.87
2019-04-28T01:11:11.769Z,6.20
2019-04-28T01:16:32.840Z,7.03
2019-04-28T01:21:37.963Z,6.43
2019-04-28T01:26:41.635Z,5.30
2019-04-28T01:31:55.689Z,5.53
2019-04-28T01:36:59.815Z,6.07
2019-04-28T01:42:03.206Z,5.27
2019-04-28T01:47:06.639Z,5.37
2019-04-28T01:52:10.479Z,4.10
2019-04-28T01:57:13.929Z,6.50
2019-04-28T02:02:17.337Z,5.17
2019-04-28T02:07:20.742Z,4.80
2019-04-28T02:12:24.168Z,4.80
2019-04-28T02:17:27.592Z,4.10
2019-04-28T02:22:32.818Z,5.10
2019-04-28T02:27:36.222Z,4.03
2019-04-28T02:32:40.730Z,4.00
2019-04-28T02:37:44.804Z,4.87
2019-04-28T02:42:48.227Z,4.23
2019-04-28T02:47:53.396Z,3.87
2019-04-28T02:53:01.891Z,4.00
2019-04-28T02:58:05.662Z,4.40
2019-04-28T03:03:11.017Z,4.70
2019-04-28T03:08:14.842Z,3.70
2019-04-28T03:13:20.932Z,3.73
2019-04-28T03:18:23.559Z,3.83
2019-04-28T03:23:27.060Z,3.83
2019-04-28T03:28:33.734Z,3.43
2019-04-28T03:33:43.554Z,4.23
2019-04-28T03:38:42.553Z,3.53
2019-04-28T03:43:46.095Z,2.63
2019-04-28T03:48:50.890Z,3.50
2019-04-28T03:53:54.762Z,2.80
2019-04-28T03:59:00.440Z,3.60
2019-04-28T04:04:03.679Z,3.93
2019-04-28T04:09:07.139Z,4.47
2019-04-28T04:14:12.194Z,4.27
2019-04-28T04:19:16.895Z,4.00
2019-04-28T04:24:20.624Z,3.90
2019-04-28T04:29:24.202Z,4.80
2019-04-28T04:34:30.113Z,3.97
2019-04-28T04:39:32.761Z,4.40
2019-04-28T04:44:38.800Z,3.73
2019-04-28T04:49:41.332Z,3.60
2019-04-28T04:54:44.750Z,3.10
2019-04-28T04:59:50.019Z,3.60
2019-04-28T05:05:04.257Z,4.90
2019-04-28T05:10:07.751Z,4.33
2019-04-28T05:15:11.940Z,5.03
2019-04-28T05:20:15.558Z,5.07
2019-04-28T05:25:24.574Z,3.90
2019-04-28T05:30:29.681Z,3.63
2019-04-28T05:35:35.570Z,4.63
2019-04-28T05:40:39.850Z,3.47
2019-04-28T05:45:44.232Z,3.77
2019-04-28T05:50:50.029Z,5.20
2019-04-28T05:55:55.199Z,3.40
2019-04-28T06:01:20.382Z,4.03
2019-04-28T06:06:25.547Z,3.67
2019-04-28T06:11:30.848Z,5.33
2019-04-28T06:16:34.232Z,3.40
2019-04-28T06:21:38.010Z,5.47
2019-04-28T06:26:41.441Z,3.97
2019-04-28T06:31:44.868Z,4.13
2019-04-28T06:36:48.311Z,4.93
2019-04-28T06:41:51.732Z,5.00
2019-04-28T06:46:55.188Z,3.90
2019-04-28T06:51:58.595Z,4.13
2019-04-28T06:57:02.057Z,4.40
2019-04-28T07:02:05.526Z,3.77
2019-04-28T07:07:09.037Z,4.00
2019-04-28T07:12:12.450Z,3.63
2019-04-28T07:17:15.881Z,4.13
2019-04-28T07:22:23.823Z,3.80
2019-04-28T07:27:27.259Z,4.33
2019-04-28T07:32:30.696Z,4.70
2019-04-28T07:37:34.132Z,3.77
2019-04-28T07:42:37.602Z,4.50
2019-04-28T07:47:41.127Z,5.77
2019-04-28T07:52:48.770Z,4.77
2019-04-28T07:57:52.338Z,6.30
2019-04-28T08:02:55.798Z,6.57
2019-04-28T08:07:59.211Z,4.93
2019-04-28T08:13:02.658Z,6.23
2019-04-28T08:18:06.181Z,5.23
2019-04-28T08:23:09.607Z,5.47
2019-04-28T08:28:13.402Z,5.90
2019-04-28T08:33:33.152Z,7.17
2019-04-28T08:38:35.617Z,8.87
2019-04-28T08:43:39.069Z,10.50
2019-04-28T08:48:42.502Z,9.90
2019-04-28T08:53:45.964Z,11.97
2019-04-28T08:58:49.442Z,12.60
2019-04-28T09:03:52.870Z,13.30
2019-04-28T09:08:56.288Z,11.07
2019-04-28T09:13:59.781Z,10.23
2019-04-28T09:19:03.221Z,11.33
2019-04-28T09:24:06.787Z,13.30
2019-04-28T09:29:10.215Z,14.17
2019-04-28T09:34:13.914Z,11.77
2019-04-28T09:39:18.980Z,11.00
2019-04-28T09:44:22.503Z,11.53
2019-04-28T09:49:28.582Z,9.30
2019-04-28T09:54:32.223Z,9.23
2019-04-28T09:59:37.191Z,11.17
2019-04-28T10:04:41.901Z,8.67
2019-04-28T10:09:48.255Z,7.23
2019-04-28T10:14:51.763Z,6.67
2019-04-28T10:19:55.189Z,10.07
2019-04-28T10:24:58.649Z,6.60
2019-04-28T10:30:02.188Z,6.60
2019-04-28T10:35:10.385Z,7.40
2019-04-28T10:40:24.369Z,8.50
2019-04-28T10:45:29.521Z,7.17
2019-04-28T10:50:32.973Z,8.40
2019-04-28T10:55:39.461Z,7.90
2019-04-28T11:00:45.929Z,7.73
2019-04-28T11:05:49.567Z,7.87
2019-04-28T11:10:53.972Z,8.23
2019-04-28T11:15:57.541Z,5.93
2019-04-28T11:21:00.997Z,5.60
2019-04-28T11:26:04.508Z,5.07
2019-04-28T11:31:08.064Z,5.93
2019-04-28T11:36:11.579Z,5.77
2019-04-28T11:41:15.059Z,4.77
2019-04-28T11:46:20.104Z,4.07
2019-04-28T11:51:23.595Z,4.93
2019-04-28T11:56:27.093Z,5.40
2019-04-28T12:01:30.798Z,5.73
2019-04-28T12:06:34.204Z,3.80
2019-04-28T12:11:39.298Z,4.67
2019-04-28T12:16:50.142Z,4.97
2019-04-28T12:21:55.581Z,4.97
2019-04-28T12:26:58.986Z,4.83
2019-04-28T12:32:02.460Z,5.43
2019-04-28T12:37:05.932Z,5.53
2019-04-28T12:42:09.499Z,5.23
2019-04-28T12:47:12.952Z,4.97
2019-04-28T12:52:16.973Z,4.10
2019-04-28T12:57:22.562Z,4.10
2019-04-28T13:02:42.982Z,4.57
2019-04-28T13:07:46.546Z,4.10
2019-04-28T13:12:50.065Z,12.03
2019-04-28T13:17:53.500Z,9.40
2019-04-28T13:22:56.917Z,8.97
2019-04-28T13:28:01.236Z,9.20
2019-04-28T13:33:04.798Z,9.70
2019-04-28T13:38:08.183Z,8.20
2019-04-28T13:43:11.613Z,9.53
2019-04-28T13:48:15.042Z,8.97
2019-04-28T13:53:26.244Z,9.10
2019-04-28T13:58:37.878Z,8.43
2019-04-28T14:03:48.924Z,9.17
2019-04-28T14:08:52.455Z,7.77
2019-04-28T14:13:55.924Z,6.83
2019-04-28T14:18:59.380Z,7.20
2019-04-28T14:24:03.870Z,6.43
2019-04-28T14:29:07.455Z,7.23
2019-04-28T14:34:12.006Z,4.43
2019-04-28T14:39:16.981Z,5.03
2019-04-28T14:44:20.469Z,5.53
2019-04-28T14:49:23.867Z,6.23
2019-04-28T14:54:31.731Z,5.10
2019-04-28T14:59:35.165Z,5.50
2019-04-28T15:04:56.748Z,5.23
2019-04-28T15:10:17.178Z,5.93
2019-04-28T15:15:21.661Z,5.73
2019-04-28T15:20:25.324Z,5.83
2019-04-28T15:25:28.757Z,5.93
2019-04-28T15:30:32.943Z,5.93
2019-04-28T15:35:36.345Z,5.97
2019-04-28T15:40:39.882Z,8.53
2019-04-28T15:45:46.806Z,5.13
2019-04-28T15:50:50.244Z,10.07
2019-04-28T15:55:55.329Z,11.40
2019-04-28T16:00:58.980Z,6.60
2019-04-28T16:06:02.518Z,6.27
2019-04-28T16:11:06.004Z,5.40
2019-04-28T16:16:09.403Z,4.87
2019-04-28T16:21:12.840Z,5.23
2019-04-28T16:26:16.297Z,6.30
2019-04-28T16:31:19.720Z,9.07
2019-04-28T16:36:23.227Z,6.30
2019-04-28T16:41:35.051Z,5.83
2019-04-28T16:46:38.480Z,5.77
2019-04-28T16:51:41.902Z,5.47
2019-04-28T16:56:59.428Z,9.67
2019-04-28T17:02:10.338Z,5.60
2019-04-28T17:07:13.953Z,5.23
2019-04-28T17:12:17.443Z,5.40
2019-04-28T17:17:20.896Z,5.07
2019-04-28T17:22:24.388Z,4.87
2019-04-28T17:27:27.832Z,6.30
2019-04-28T17:32:31.451Z,4.60
2019-04-28T17:37:35.030Z,5.20
2019-04-28T17:42:38.448Z,6.17
2019-04-28T17:47:41.951Z,5.20
2019-04-28T17:52:45.923Z,7.03
2019-04-28T17:57:49.608Z,6.93
2019-04-28T18:02:54.690Z,7.27
2019-04-28T18:07:59.743Z,8.43
2019-04-28T18:13:03.342Z,6.97
2019-04-28T18:18:17.482Z,7.50
2019-04-28T18:23:21.066Z,8.67
2019-04-28T18:28:24.649Z,7.60
2019-04-28T18:33:39.038Z,8.57
2019-04-28T18:38:44.158Z,9.70
2019-04-28T18:44:04.091Z,8.50
2019-04-28T18:49:07.599Z,9.77
2019-04-28T18:54:11.439Z,11.20
2019-04-28T18:59:14.986Z,10.60
2019-04-28T19:04:19.121Z,9.17
2019-04-28T19:09:30.038Z,13.23
2019-04-28T19:14:47.388Z,11.93
2019-04-28T19:19:50.870Z,9.17
2019-04-28T19:24:54.371Z,10.30
2019-04-28T19:29:59.594Z,10.20
2019-04-28T19:35:03.005Z,10.73
2019-04-28T19:40:07.262Z,12.63
2019-04-28T19:45:12.703Z,11.33
2019-04-28T19:50:17.093Z,11.60
2019-04-28T19:55:22.183Z,13.43
2019-04-28T20:00:27.432Z,12.17
2019-04-28T20:05:30.872Z,18.87
2019-04-28T20:10:34.325Z,15.53
2019-04-28T20:15:37.841Z,13.67
2019-04-28T20:20:41.294Z,13.43
2019-04-28T20:25:46.547Z,11.30
2019-04-28T20:30:49.934Z,11.53
2019-04-28T20:35:54.996Z,11.73
2019-04-28T20:41:00.126Z,11.87
2019-04-28T20:46:03.554Z,13.00
2019-04-28T20:51:06.960Z,10.37
2019-04-28T20:56:10.487Z,10.83
2019-04-28T21:01:13.920Z,12.50
2019-04-28T21:06:17.372Z,12.30
2019-04-28T21:11:20.795Z,12.10
2019-04-28T21:16:24.247Z,12.10
2019-04-28T21:21:27.743Z,11.87
2019-04-28T21:26:31.240Z,13.87
2019-04-28T21:31:34.700Z,11.37
2019-04-28T21:36:38.155Z,11.07
2019-04-28T21:41:42.142Z,11.10
2019-04-28T21:46:47.299Z,11.27
2019-04-28T21:51:50.744Z,12.03
2019-04-28T21:56:54.252Z,12.53
2019-04-28T22:01:57.763Z,12.60
2019-04-28T22:07:01.205Z,11.57
2019-04-28T22:12:04.845Z,11.07
2019-04-28T22:17:08.413Z,11.60
2019-04-28T22:22:11.956Z,11.80
2019-04-28T22:27:17.670Z,11.67
2019-04-28T22:32:21.132Z,11.63
2019-04-28T22:37:24.679Z,10.37
2019-04-28T22:42:28.143Z,11.07
2019-04-28T22:47:31.676Z,11.50
2019-04-28T22:52:35.203Z,10.90
2019-04-28T22:57:55.227Z,10.63
2019-04-28T23:02:58.703Z,11.97
2019-04-28T23:08:02.113Z,12.70
2019-04-28T23:13:05.555Z,10.60
2019-04-28T23:18:09.052Z,10.30
2019-04-28T23:23:12.753Z,12.17
2019-04-28T23:28:16.172Z,11.70
2019-04-28T23:33:19.618Z,12.53
2019-04-28T23:38:23.039Z,11.20
2019-04-28T23:43:26.482Z,12.83
2019-04-28T23:48:29.905Z,12.43
2019-04-28T23:53:50.933Z,12.40
2019-04-28T23:58:54.380Z,11.57
